Time;durP1;ratioP1;P1;durP2;ratioP2;P2;SDS_P1;SDS_P2;PMS_P1;PMS_P2;Temp;Humidity;BMP_temperature;BMP_pressure;BME280_temperature;BME280_humidity;BME280_pressure;Samples;Min_cycle;Max_cycle;Signal;HPM_P1;HPM_P2
2021/12/28 00:00:26;;;;;;;;;;;;;;;19.15;51.39;98451.19;7286986;19;151766;-50
2021/12/28 00:02:54;;;;;;;;;;;;;;;19.15;51.46;98448.38;7287479;19;153075;-49
2021/12/28 00:05:22;;;;;;;;;;;;;;;19.14;51.62;98453.16;7287081;19;153398;-50
2021/12/28 00:07:50;;;;;;;;;;;;;;;19.15;51.41;98442.78;7284930;19;152402;-50
2021/12/28 00:10:19;;;;;;;;;;;;;;;19.10;51.81;98449.47;7287257;19;152836;-50
2021/12/28 00:12:46;;;;;;;;;;;;;;;19.13;51.80;98445.13;7292572;19;153293;-50
2021/12/28 00:20:15;;;;;;;;;;;;;;;19.08;51.46;98444.22;7287369;19;152066;-49
2021/12/28 00:22:42;;;;;;;;;;;;;;;19.09;51.89;98447.81;7287054;19;152234;-49
2021/12/28 00:25:11;;;;;;;;;;;;;;;19.06;51.61;98454.16;7285271;19;153712;-50
2021/12/28 00:27:38;;;;;;;;;;;;;;;19.10;51.58;98458.69;7287048;19;152211;-50
2021/12/28 00:30:06;;;;;;;;;;;;;;;19.09;51.48;98456.22;7286653;19;153575;-50
2021/12/28 00:32:33;;;;;;;;;;;;;;;19.09;51.46;98462.63;7285545;19;153463;-49
2021/12/28 00:35:01;;;;;;;;;;;;;;;19.08;51.80;98455.41;7292426;19;152160;-50
2021/12/28 00:37:28;;;;;;;;;;;;;;;19.07;51.81;98461.38;7285322;19;153605;-49
2021/12/28 00:39:55;;;;;;;;;;;;;;;19.05;51.83;98470.13;7286791;19;151934;-50
2021/12/28 00:42:22;;;;;;;;;;;;;;;19.05;51.72;98475.72;7288755;19;151927;-53
2021/12/28 00:44:49;;;;;;;;;;;;;;;19.04;51.60;98479.69;7286185;19;153719;-50
2021/12/28 00:47:16;;;;;;;;;;;;;;;19.05;51.96;98481.31;7285334;19;152062;-50
2021/12/28 00:49:43;;;;;;;;;;;;;;;19.03;51.73;98485.66;7285945;19;152167;-50
2021/12/28 00:52:11;;;;;;;;;;;;;;;19.07;51.69;98479.00;7281254;19;153308;-50
2021/12/28 00:54:38;;;;;;;;;;;;;;;19.02;51.73;98472.84;7293802;19;152564;-49
2021/12/28 00:57:06;;;;;;;;;;;;;;;19.03;51.68;98472.47;7285096;19;154335;-49
2021/12/28 00:59:33;;;;;;;;;;;;;;;19.05;51.98;98478.53;7286182;19;153101;-49
2021/12/28 01:02:00;;;;;;;;;;;;;;;19.07;51.69;98481.78;7287317;19;152813;-50
2021/12/28 01:04:28;;;;;;;;;;;;;;;19.07;51.97;98480.97;7281075;19;154359;-50
2021/12/28 01:06:55;;;;;;;;;;;;;;;19.07;51.67;98475.38;7283123;19;151952;-49
2021/12/28 01:09:29;;;;;;;;;;;;;;;19.06;51.86;98488.56;7285111;19;153558;-50
2021/12/28 01:11:58;;;;;;;;;;;;;;;19.06;51.92;98482.16;7282461;19;153298;-50
2021/12/28 01:14:26;;;;;;;;;;;;;;;19.09;51.66;98475.81;7283143;19;152055;-49
2021/12/28 01:16:53;;;;;;;;;;;;;;;19.08;51.84;98479.78;7292250;19;152201;-50
2021/12/28 01:19:20;;;;;;;;;;;;;;;19.08;51.91;98480.59;7285433;19;152029;-49
2021/12/28 01:21:47;;;;;;;;;;;;;;;19.10;51.64;98480.25;7287713;19;153325;-50
2021/12/28 01:24:14;;;;;;;;;;;;;;;19.07;52.02;98466.97;7286098;19;153764;-50
2021/12/28 01:26:41;;;;;;;;;;;;;;;19.09;51.66;98475.81;7283544;19;151976;-50
2021/12/28 01:29:08;;;;;;;;;;;;;;;19.13;51.78;98478.69;7286324;19;153294;-50
2021/12/28 01:31:37;;;;;;;;;;;;;;;19.09;51.73;98473.84;7283630;19;153609;-50
2021/12/28 01:34:05;;;;;;;;;;;;;;;19.11;51.64;98465.09;7285894;19;151662;-50
2021/12/28 01:36:32;;;;;;;;;;;;;;;19.09;51.81;98473.03;7285209;19;153636;-50
2021/12/28 01:39:00;;;;;;;;;;;;;;;19.07;51.61;98479.00;7291542;19;154495;-50
2021/12/28 01:41:27;;;;;;;;;;;;;;;19.09;51.65;98487.00;7282816;19;153899;-49
2021/12/28 01:43:55;;;;;;;;;;;;;;;19.06;51.79;98482.97;7280641;19;152844;-49
2021/12/28 01:46:22;;;;;;;;;;;;;;;19.05;52.07;98481.31;7283584;19;152535;-49
2021/12/28 01:48:49;;;;;;;;;;;;;;;19.08;51.76;98486.19;7285062;19;152341;-50
2021/12/28 01:51:18;;;;;;;;;;;;;;;19.05;51.72;98495.31;7280879;19;154023;-49
2021/12/28 01:53:46;;;;;;;;;;;;;;;19.08;51.66;98500.19;7287412;19;151890;-50
2021/12/28 01:56:15;;;;;;;;;;;;;;;19.07;51.91;98497.78;7287358;19;152763;-50
2021/12/28 01:58:43;;;;;;;;;;;;;;;19.07;51.84;98506.97;7284227;19;153269;-50
2021/12/28 02:01:10;;;;;;;;;;;;;;;19.04;52.16;98504.06;7292597;19;152123;-50
2021/12/28 02:03:39;;;;;;;;;;;;;;;19.10;51.61;98499.84;7283775;19;152786;-50
2021/12/28 02:06:06;;;;;;;;;;;;;;;19.05;52.08;98500.09;7283702;19;151924;-50
2021/12/28 02:08:33;;;;;;;;;;;;;;;19.08;51.65;98507.78;7284031;19;152799;-50
2021/12/28 02:11:01;;;;;;;;;;;;;;;19.03;52.16;98514.44;7282806;19;153505;-50
2021/12/28 02:13:28;;;;;;;;;;;;;;;19.04;51.77;98506.84;7287202;19;151957;-50
2021/12/28 02:15:56;;;;;;;;;;;;;;;19.06;51.93;98510.13;7285639;19;153440;-50
2021/12/28 02:18:24;;;;;;;;;;;;;;;19.01;52.07;98504.78;7281288;19;153758;-50
2021/12/28 02:20:52;;;;;;;;;;;;;;;19.00;51.89;98509.56;7280930;19;152182;-49
2021/12/28 02:23:19;;;;;;;;;;;;;;;19.01;52.10;98494.41;7289376;19;152354;-49
2021/12/28 02:25:46;;;;;;;;;;;;;;;18.98;52.17;98503.53;7282311;19;152624;-49
2021/12/28 02:28:14;;;;;;;;;;;;;;;19.00;51.92;98503.97;7285062;19;153463;-50
2021/12/28 02:30:43;;;;;;;;;;;;;;;19.02;52.28;98496.03;7282597;19;153855;-49
2021/12/28 02:33:10;;;;;;;;;;;;;;;19.03;52.36;98497.66;7281520;19;152329;-51
2021/12/28 02:35:38;;;;;;;;;;;;;;;18.99;52.03;98495.91;7286416;19;153327;-50
2021/12/28 02:38:07;;;;;;;;;;;;;;;19.02;52.03;98489.63;7283946;19;153942;-50
2021/12/28 02:40:35;;;;;;;;;;;;;;;19.05;51.83;98483.31;7284694;19;152403;-49
2021/12/28 02:43:03;;;;;;;;;;;;;;;19.03;51.91;98483.66;7281666;19;153218;-50
2021/12/28 02:45:32;;;;;;;;;;;;;;;19.03;52.26;98489.25;7288990;19;152496;-50
2021/12/28 02:47:59;;;;;;;;;;;;;;;19.05;51.83;98488.91;7281827;19;152713;-50
2021/12/28 02:50:28;;;;;;;;;;;;;;;19.02;52.11;98476.47;7280334;19;153880;-50
2021/12/28 02:52:55;;;;;;;;;;;;;;;19.02;51.93;98490.44;7280175;19;152081;-52
2021/12/28 02:55:25;;;;;;;;;;;;;;;19.02;52.25;98484.03;7280377;19;153260;-50
2021/12/28 02:57:54;;;;;;;;;;;;;;;19.02;52.05;98481.22;7280949;19;154177;-49
2021/12/28 03:00:24;;;;;;;;;;;;;;;19.04;52.09;98490.06;7280693;19;152150;-49
2021/12/28 03:02:51;;;;;;;;;;;;;;;19.03;51.98;98485.66;7282653;19;153786;-50
2021/12/28 03:05:18;;;;;;;;;;;;;;;19.02;52.22;98476.47;7289781;19;152832;-50
2021/12/28 03:07:45;;;;;;;;;;;;;;;19.02;52.04;98465.25;7282662;19;153485;-50
2021/12/28 03:10:12;;;;;;;;;;;;;;;19.00;51.87;98456.41;7280140;19;153668;-50
2021/12/28 03:12:39;;;;;;;;;;;;;;;19.02;52.01;98448.47;7280083;19;152190;-50
2021/12/28 03:15:06;;;;;;;;;;;;;;;19.00;51.89;98444.38;7280607;19;152587;-50
2021/12/28 03:17:33;;;;;;;;;;;;;;;19.03;52.19;98433.28;7284660;19;153778;-50
2021/12/28 03:20:00;;;;;;;;;;;;;;;19.04;51.73;98434.91;7284224;19;151802;-50
2021/12/28 03:22:27;;;;;;;;;;;;;;;19.01;51.94;98430.06;7285164;19;152274;-50
2021/12/28 03:24:54;;;;;;;;;;;;;;;19.01;51.99;98424.44;7281792;19;153318;-49
2021/12/28 03:27:22;;;;;;;;;;;;;;;18.95;51.93;98431.47;7288270;19;152259;-50
2021/12/28 03:29:49;;;;;;;;;;;;;;;18.97;51.96;98431.94;7281060;19;154031;-50
2021/12/28 03:32:16;;;;;;;;;;;;;;;18.95;51.93;98425.88;7277651;19;152003;-49
2021/12/28 03:34:43;;;;;;;;;;;;;;;18.93;52.42;98433.84;7282308;19;153465;-51
2021/12/28 03:37:10;;;;;;;;;;;;;;;18.94;52.07;98432.66;7281198;19;153934;-49
2021/12/28 03:39:37;;;;;;;;;;;;;;;18.93;52.43;98447.00;7282118;19;151883;-49
2021/12/28 03:42:05;;;;;;;;;;;;;;;18.99;52.30;98451.16;7283525;19;152852;-50
2021/12/28 03:44:32;;;;;;;;;;;;;;;18.95;52.04;98453.84;7280839;19;153399;-49
2021/12/28 03:46:59;;;;;;;;;;;;;;;18.95;52.17;98459.47;7280907;19;152465;-50
2021/12/28 03:49:26;;;;;;;;;;;;;;;18.96;51.96;98468.66;7286803;19;153322;-50
2021/12/28 03:51:53;;;;;;;;;;;;;;;18.96;52.46;98471.47;7279927;19;152156;-50
2021/12/28 03:54:23;;;;;;;;;;;;;;;18.97;52.06;98462.72;7281409;19;152718;-50
2021/12/28 03:56:50;;;;;;;;;;;;;;;18.92;52.54;98464.97;7279761;19;154790;-50
2021/12/28 03:59:17;;;;;;;;;;;;;;;18.91;52.26;98464.16;7281362;19;152257;-50
2021/12/28 04:01:45;;;;;;;;;;;;;;;18.90;52.53;98456.91;7281113;19;152558;-49
2021/12/28 04:04:12;;;;;;;;;;;;;;;18.91;52.39;98464.16;7279717;19;152732;-49
2021/12/28 04:06:39;;;;;;;;;;;;;;;18.87;52.79;98463.25;7277222;19;152631;-51
2021/12/28 04:09:08;;;;;;;;;;;;;;;18.91;52.65;98466.94;7280937;19;152011;-50
2021/12/28 04:11:35;;;;;;;;;;;;;;;18.89;52.58;98462.88;7286133;19;154222;-49
2021/12/28 04:14:03;;;;;;;;;;;;;;;18.85;52.56;98473.97;7281102;19;151960;-50
2021/12/28 04:16:31;;;;;;;;;;;;;;;18.86;52.65;98464.41;7277562;19;154151;-51
2021/12/28 04:18:58;;;;;;;;;;;;;;;18.84;52.70;98475.16;7277919;19;152333;-52
2021/12/28 04:21:26;;;;;;;;;;;;;;;18.82;52.90;98465.47;7278868;19;152594;-49
2021/12/28 04:23:53;;;;;;;;;;;;;;;18.81;52.99;98466.63;7278958;19;154196;-50
2021/12/28 04:26:22;;;;;;;;;;;;;;;18.81;52.94;98473.06;7276925;19;152809;-50
2021/12/28 04:28:50;;;;;;;;;;;;;;;18.83;52.92;98479.13;7280503;19;153445;-50
2021/12/28 04:31:17;;;;;;;;;;;;;;;18.81;52.81;98470.25;7279199;19;153915;-50
2021/12/28 04:33:45;;;;;;;;;;;;;;;18.81;53.09;98464.66;7286751;19;152083;-49
2021/12/28 04:36:13;;;;;;;;;;;;;;;18.79;53.07;98467.00;7279685;19;153553;-50
2021/12/28 04:38:41;;;;;;;;;;;;;;;18.76;52.63;98459.31;7281532;19;152180;-50
2021/12/28 04:41:10;;;;;;;;;;;;;;;18.74;52.87;98477.66;7286027;19;152923;-50
2021/12/28 04:43:37;;;;;;;;;;;;;;;18.72;52.88;98474.38;7284495;19;154097;-50
2021/12/28 04:46:05;;;;;;;;;;;;;;;18.71;52.86;98472.78;7284867;19;152004;-50
2021/12/28 04:48:33;;;;;;;;;;;;;;;18.71;53.21;98475.56;7286123;19;153317;-50
2021/12/28 04:51:00;;;;;;;;;;;;;;;18.70;53.02;98479.53;7285605;19;154042;-49
2021/12/28 04:53:28;;;;;;;;;;;;;;;18.67;52.93;98470.66;7292028;19;151811;-50
2021/12/28 04:55:55;;;;;;;;;;;;;;;18.69;53.25;98469.50;7287852;19;153520;-50
2021/12/28 04:58:23;;;;;;;;;;;;;;;18.72;53.21;98480.78;7286628;19;152883;-49
2021/12/28 05:00:51;;;;;;;;;;;;;;;18.72;53.08;98477.16;7287380;19;153324;-50
2021/12/28 05:03:18;;;;;;;;;;;;;;;18.69;52.98;98470.31;7282903;19;153960;-50
2021/12/28 05:05:48;;;;;;;;;;;;;;;18.69;53.06;98463.91;7284300;19;152399;-49
2021/12/28 05:08:15;;;;;;;;;;;;;;;18.67;53.18;98481.03;7284321;19;153907;-50
2021/12/28 05:10:43;;;;;;;;;;;;;;;18.65;53.30;98484.22;7284359;19;154444;-50
2021/12/28 05:13:10;;;;;;;;;;;;;;;18.65;53.27;98477.81;7283692;19;152305;-50
2021/12/28 05:15:38;;;;;;;;;;;;;;;18.67;53.36;98472.66;7291311;19;152743;-50
2021/12/28 05:18:05;;;;;;;;;;;;;;;18.72;53.25;98474.38;7287265;19;152126;-50
2021/12/28 05:20:32;;;;;;;;;;;;;;;18.70;53.08;98477.56;7284181;19;152376;-51
2021/12/28 05:23:00;;;;;;;;;;;;;;;18.67;52.98;98472.66;7282672;19;154109;-50
2021/12/28 05:25:27;;;;;;;;;;;;;;;18.67;53.07;98481.84;7282190;19;151895;-50
2021/12/28 05:27:54;;;;;;;;;;;;;;;18.65;53.04;98475.81;7286591;19;153006;-49
2021/12/28 05:30:21;;;;;;;;;;;;;;;18.65;52.97;98477.81;7284820;19;153433;-49
2021/12/28 05:32:48;;;;;;;;;;;;;;;18.63;52.97;98483.75;7284147;19;151571;-50
2021/12/28 05:35:15;;;;;;;;;;;;;;;18.61;53.05;98488.06;7285508;19;152699;-50
2021/12/28 05:37:43;;;;;;;;;;;;;;;18.61;53.01;98485.28;7291486;19;152946;-50
2021/12/28 05:40:11;;;;;;;;;;;;;;;18.62;53.29;98489.72;7281329;19;152620;-50
2021/12/28 05:42:38;;;;;;;;;;;;;;;18.63;53.13;98491.31;7283825;19;153395;-50
2021/12/28 05:45:05;;;;;;;;;;;;;;;18.63;53.01;98488.50;7288477;19;151820;-49
2021/12/28 05:47:32;;;;;;;;;;;;;;;18.59;53.19;98482.81;7286400;19;153691;-50
2021/12/28 05:50:00;;;;;;;;;;;;;;;18.59;52.99;98490.41;7282666;19;152925;-50
2021/12/28 05:52:27;;;;;;;;;;;;;;;18.57;53.43;98493.56;7282750;19;151984;-50
2021/12/28 05:54:54;;;;;;;;;;;;;;;18.56;53.34;98482.72;7284056;19;152996;-50
2021/12/28 05:57:21;;;;;;;;;;;;;;;18.54;53.44;98480.28;7281554;19;154244;-50
2021/12/28 05:59:49;;;;;;;;;;;;;;;18.56;53.11;98479.94;7290306;19;152658;-49
2021/12/28 06:02:16;;;;;;;;;;;;;;;18.56;53.22;98479.94;7285258;19;154244;-49
2021/12/28 06:04:43;;;;;;;;;;;;;;;18.56;53.27;98472.38;7286606;19;152036;-49
2021/12/28 06:07:10;;;;;;;;;;;;;;;18.55;53.17;98473.53;7283274;19;153755;-50
2021/12/28 06:09:38;;;;;;;;;;;;;;;18.55;52.95;98476.31;7286029;19;153467;-49
2021/12/28 06:12:06;;;;;;;;;;;;;;;18.54;53.19;98480.28;7285603;19;151808;-49
2021/12/28 06:14:34;;;;;;;;;;;;;;;18.54;53.38;98473.88;7287082;19;153553;-49
2021/12/28 06:17:01;;;;;;;;;;;;;;;18.54;53.09;98476.66;7283128;19;153383;-50
2021/12/28 06:19:28;;;;;;;;;;;;;;;18.50;53.08;98484.94;7285590;19;152330;-50
2021/12/28 06:21:55;;;;;;;;;;;;;;;18.48;53.44;98481.69;7291434;19;153462;-50
2021/12/28 06:24:22;;;;;;;;;;;;;;;18.46;53.14;98481.22;7284139;19;152695;-50
2021/12/28 06:26:49;;;;;;;;;;;;;;;18.49;53.41;98474.91;7286568;19;153013;-50
2021/12/28 06:29:18;;;;;;;;;;;;;;;18.52;53.31;98473.41;7286323;19;153451;-50
2021/12/28 06:31:46;;;;;;;;;;;;;;;18.50;53.27;98470.13;7284304;19;151782;-49
2021/12/28 06:34:13;;;;;;;;;;;;;;;18.49;53.36;98469.31;7279635;19;153508;-50
2021/12/28 06:36:40;;;;;;;;;;;;;;;18.49;53.12;98462.91;7281245;19;154122;-49
2021/12/28 06:39:07;;;;;;;;;;;;;;;18.49;53.39;98472.09;7281856;19;152008;-50
2021/12/28 06:41:34;;;;;;;;;;;;;;;18.47;53.46;98466.06;7283703;19;153482;-50
2021/12/28 06:44:01;;;;;;;;;;;;;;;18.47;53.49;98462.47;7290267;19;154094;-49
2021/12/28 06:46:28;;;;;;;;;;;;;;;18.46;53.18;98466.41;7282842;19;151968;-49
2021/12/28 06:48:55;;;;;;;;;;;;;;;18.48;53.31;98464.09;7281286;19;154244;-49
2021/12/28 06:51:23;;;;;;;;;;;;;;;18.47;53.45;98454.88;7283267;19;153619;-49
2021/12/28 06:53:50;;;;;;;;;;;;;;;18.49;53.43;98457.31;7281622;19;153146;-49
2021/12/28 06:56:17;;;;;;;;;;;;;;;18.47;53.41;98449.28;7282542;19;153500;-49
2021/12/28 06:58:44;;;;;;;;;;;;;;;18.49;53.00;98448.91;7283107;19;152693;-49
2021/12/28 07:01:11;;;;;;;;;;;;;;;18.48;52.89;98444.53;7283048;19;152705;-49
2021/12/28 07:03:39;;;;;;;;;;;;;;;18.48;53.35;98441.72;7284068;19;153475;-52
2021/12/28 07:06:07;;;;;;;;;;;;;;;18.46;53.44;98450.47;7281513;19;152408;-49
2021/12/28 07:08:34;;;;;;;;;;;;;;;18.46;53.13;98452.44;7279222;19;154106;-50
2021/12/28 07:11:02;;;;;;;;;;;;;;;18.46;53.17;98444.06;7282913;19;152062;-50
2021/12/28 07:13:29;;;;;;;;;;;;;;;18.43;53.15;98436.38;7282111;19;153154;-50
2021/12/28 07:15:56;;;;;;;;;;;;;;;18.44;53.17;98447.19;7282233;19;153876;-50
2021/12/28 07:18:23;;;;;;;;;;;;;;;18.41;53.31;98445.13;7285892;19;152073;-49
2021/12/28 07:20:50;;;;;;;;;;;;;;;18.42;53.50;98443.13;7284238;19;152895;-50
2021/12/28 07:23:17;;;;;;;;;;;;;;;18.40;53.33;98442.66;7281343;19;154039;-49
2021/12/28 07:25:45;;;;;;;;;;;;;;;18.41;53.33;98447.09;7291974;19;151738;-49
2021/12/28 07:28:13;;;;;;;;;;;;;;;18.42;53.31;98454.31;7282608;19;153984;-50
2021/12/28 07:30:44;;;;;;;;;;;;;;;18.39;53.12;98455.84;7281020;19;152156;-50
2021/12/28 07:33:11;;;;;;;;;;;;;;;18.36;53.52;98458.53;7281606;19;152681;-50
2021/12/28 07:35:38;;;;;;;;;;;;;;;18.36;53.27;98462.13;7280274;19;152338;-50
2021/12/28 07:38:06;;;;;;;;;;;;;;;18.36;53.47;98467.72;7282664;19;153109;-50
2021/12/28 07:40:33;;;;;;;;;;;;;;;18.34;53.30;98486.03;7279969;19;153528;-50
2021/12/28 07:43:00;;;;;;;;;;;;;;;18.35;53.44;98496.84;7278814;19;152766;-49
2021/12/28 07:45:27;;;;;;;;;;;;;;;18.34;53.32;98489.66;7281220;19;151976;-50
2021/12/28 07:47:54;;;;;;;;;;;;;;;18.34;53.52;98502.81;7287014;19;153518;-50
2021/12/28 07:50:21;;;;;;;;;;;;;;;18.32;53.17;98489.19;7277908;19;152976;-50
2021/12/28 07:52:49;;;;;;;;;;;;;;;18.30;53.16;98524.25;7278235;19;152343;-49
2021/12/28 07:55:16;;;;;;;;;;;;;;;18.27;53.22;98492.22;7279575;19;153789;-50
2021/12/28 07:57:44;;;;;;;;;;;;;;;18.26;53.08;98475.81;7282041;19;151756;-49
2021/12/28 08:00:12;;;;;;;;;;;;;;;18.26;52.90;98489.78;7284073;19;153317;-49
2021/12/28 08:02:42;;;;;;;;;;;;;;;18.26;52.86;98495.38;7278058;19;153764;-49
2021/12/28 08:05:11;;;;;;;;;;;;;;;18.23;52.73;98489.31;7280249;19;151693;-50
2021/12/28 08:07:38;;;;;;;;;;;;;;;18.21;52.92;98504.81;7277480;19;153415;-50
2021/12/28 08:10:06;;;;;;;;;;;;;;;18.22;52.91;98509.22;7288414;19;154081;-49
2021/12/28 08:12:33;;;;;;;;;;;;;;;18.18;52.56;98514.72;7279876;19;153346;-49
2021/12/28 08:15:02;;;;;;;;;;;;;;;18.18;52.83;98523.09;7280549;19;154012;-51
2021/12/28 08:17:30;;;;;;;;;;;;;;;18.19;52.64;98527.53;7287490;19;151845;-49
2021/12/28 08:19:58;;;;;;;;;;;;;;;18.17;52.58;98527.03;7286217;19;152664;-49
2021/12/28 08:22:25;;;;;;;;;;;;;;;18.17;52.20;98534.63;7288009;19;153646;-50
2021/12/28 08:24:52;;;;;;;;;;;;;;;18.16;52.07;98527.41;7288171;19;152584;-49
2021/12/28 08:27:20;;;;;;;;;;;;;;;18.14;52.24;98522.16;7288786;19;152537;-50
2021/12/28 08:29:47;;;;;;;;;;;;;;;18.15;52.01;98537.78;7287813;19;152174;-50
2021/12/28 08:32:14;;;;;;;;;;;;;;;18.13;51.96;98537.31;7294708;19;151876;-49
2021/12/28 08:34:41;;;;;;;;;;;;;;;18.13;52.06;98542.88;7286624;19;153307;-49
2021/12/28 08:37:09;;;;;;;;;;;;;;;18.15;52.11;98550.94;7288463;19;151990;-49
2021/12/28 08:39:36;;;;;;;;;;;;;;;18.18;52.13;98539.84;7286120;19;154166;-49
2021/12/28 08:42:03;;;;;;;;;;;;;;;18.18;51.72;98531.47;7284950;19;154683;-50
2021/12/28 08:44:30;;;;;;;;;;;;;;;18.17;51.96;98529.84;7289201;19;152019;-49
2021/12/28 08:46:57;;;;;;;;;;;;;;;18.15;51.79;98537.78;7287549;19;153798;-50
2021/12/28 08:49:26;;;;;;;;;;;;;;;18.15;51.48;98540.56;7288290;19;153582;-50
2021/12/28 08:51:53;;;;;;;;;;;;;;;18.15;51.55;98539.75;7288931;19;152470;-50
2021/12/28 08:54:21;;;;;;;;;;;;;;;18.14;51.80;98536.13;7289543;19;152034;-49
2021/12/28 08:56:50;;;;;;;;;;;;;;;18.14;51.39;98533.34;7285436;19;151979;-50
2021/12/28 08:59:18;;;;;;;;;;;;;;;18.15;51.83;98534.16;7285117;19;153052;-49
2021/12/28 09:01:48;;;;;;;;;;;;;;;18.14;51.37;98547.31;7283574;19;154664;-51
2021/12/28 09:04:16;;;;;;;;;;;;;;;18.13;51.71;98542.06;7283809;19;152246;-50
2021/12/28 09:06:43;;;;;;;;;;;;;;;18.14;51.58;98558.50;7282665;19;154022;-50
2021/12/28 09:09:10;;;;;;;;;;;;;;;18.11;51.21;98556.41;7282854;19;153511;-50
2021/12/28 09:11:37;;;;;;;;;;;;;;;18.10;51.53;98571.53;7285451;19;152428;-52
2021/12/28 09:14:05;;;;;;;;;;;;;;;18.09;51.22;98580.28;7290000;19;153811;-49
2021/12/28 09:16:32;;;;;;;;;;;;;;;18.09;51.25;98575.50;7285837;19;151871;-50
2021/12/28 09:18:59;;;;;;;;;;;;;;;18.09;51.12;98606.22;7283838;19;154028;-50
2021/12/28 09:21:26;;;;;;;;;;;;;;;18.09;51.18;98594.25;7283363;19;153627;-49
2021/12/28 09:23:54;;;;;;;;;;;;;;;18.09;50.85;98586.69;7283129;19;152075;-50
2021/12/28 09:26:41;;;;;;;;;;;;;;;18.07;50.92;98588.19;7281205;19;154315;-49
2021/12/28 09:29:08;;;;;;;;;;;;;;;18.07;50.97;98583.44;7285791;19;153713;-49
2021/12/28 09:31:35;;;;;;;;;;;;;;;18.04;50.71;98584.09;7284844;19;152443;-50
2021/12/28 09:34:03;;;;;;;;;;;;;;;18.05;50.77;98587.72;7283712;19;153460;-49
2021/12/28 09:36:50;;;;;;;;;;;;;;;18.04;50.74;98620.44;7288888;19;155178;-49
2021/12/28 09:39:22;;;;;;;;;;;;;;;18.04;50.78;98595.28;7282232;19;153577;-49
2021/12/28 09:41:51;;;;;;;;;;;;;;;18.06;50.49;98594.94;7282057;19;153414;-49
2021/12/28 09:44:18;;;;;;;;;;;;;;;18.05;50.42;98591.34;7281957;19;152158;-49
2021/12/28 09:46:46;;;;;;;;;;;;;;;18.05;50.52;98591.34;7283073;19;153252;-50
2021/12/28 09:49:13;;;;;;;;;;;;;;;18.04;50.31;98586.91;7282743;19;152229;-49
2021/12/28 09:51:41;;;;;;;;;;;;;;;18.07;50.24;98585.41;7284253;19;152321;-50
2021/12/28 09:54:08;;;;;;;;;;;;;;;18.03;50.22;98581.69;7283742;19;153367;-49
2021/12/28 09:56:36;;;;;;;;;;;;;;;18.07;49.96;98583.44;7283314;19;153414;-49
2021/12/28 09:59:04;;;;;;;;;;;;;;;18.02;50.34;98572.50;7288686;19;152121;-50
2021/12/28 10:01:32;;;;;;;;;;;;;;;18.07;50.25;98585.41;7281583;19;154254;-49
2021/12/28 10:03:59;;;;;;;;;;;;;;;18.06;50.27;98587.38;7283613;19;153868;-49
2021/12/28 10:06:28;;;;;;;;;;;;;;;18.04;50.04;98575.72;7282311;19;153400;-49
2021/12/28 10:08:58;;;;;;;;;;;;;;;18.03;49.96;98585.31;7280553;19;154623;-50
2021/12/28 10:11:35;;;;;;;;;;;;;;;18.01;49.83;98579.22;7284586;19;151834;-49
2021/12/28 10:14:14;;;;;;;;;;;;;;;18.04;49.85;98588.88;7284470;19;152775;-49
2021/12/28 10:16:44;;;;;;;;;;;;;;;17.99;49.92;98589.94;7284991;19;153321;-49
2021/12/28 10:19:15;;;;;;;;;;;;;;;17.99;50.04;98592.72;7282627;19;152337;-50
2021/12/28 10:21:42;;;;;;;;;;;;;;;17.99;49.80;98597.53;7289427;19;153189;-49
2021/12/28 10:24:09;;;;;;;;;;;;;;;18.04;49.83;98594.47;7284861;19;151844;-49
2021/12/28 10:26:36;;;;;;;;;;;;;;;18.00;49.43;98605.53;7284126;19;153511;-50
2021/12/28 10:29:28;;;;;;;;;;;;;;;18.01;49.37;98603.56;7283759;19;154097;-50
2021/12/28 10:31:58;;;;;;;;;;;;;;;18.00;49.62;98599.94;7285106;19;151955;-50
2021/12/28 10:34:25;;;;;;;;;;;;;;;17.98;49.50;98616.25;7280567;19;153975;-50
2021/12/28 10:36:52;;;;;;;;;;;;;;;17.97;49.51;98606.25;7281397;19;154733;-49
2021/12/28 10:39:39;;;;;;;;;;;;;;;17.99;49.40;98608.69;7283004;19;152021;-49
2021/12/28 10:42:06;;;;;;;;;;;;;;;17.96;49.06;98599.00;7281190;19;152577;-49
2021/12/28 10:44:53;;;;;;;;;;;;;;;17.92;49.59;98617.63;7289867;19;154366;-49
2021/12/28 10:47:26;;;;;;;;;;;;;;;17.90;49.59;98635.94;7280934;19;152872;-49
2021/12/28 10:49:54;;;;;;;;;;;;;;;17.91;49.42;98615.19;7282255;19;154080;-49
2021/12/28 10:52:26;;;;;;;;;;;;;;;17.90;49.44;98625.53;7279954;19;152525;-50
2021/12/28 10:54:56;;;;;;;;;;;;;;;17.93;49.33;98626.84;7280742;19;153774;-49
2021/12/28 10:57:37;;;;;;;;;;;;;;;17.87;49.81;98643.00;7281953;19;153353;-49
2021/12/28 11:00:07;;;;;;;;;;;;;;;17.86;49.93;98641.38;7282538;19;151923;-50
2021/12/28 11:02:34;;;;;;;;;;;;;;;17.84;49.83;98635.31;7281529;19;153574;-49
2021/12/28 11:05:01;;;;;;;;;;;;;;;17.84;49.57;98643.72;7282581;19;152636;-49
2021/12/28 11:07:30;;;;;;;;;;;;;;;17.85;50.19;98642.56;7287946;19;152359;-50
2021/12/28 11:10:00;;;;;;;;;;;;;;;17.84;49.96;98643.72;7281985;19;153248;-50
2021/12/28 11:12:42;;;;;;;;;;;;;;;17.89;49.52;98657.44;7281965;19;152485;-49
2021/12/28 11:15:09;;;;;;;;;;;;;;;17.82;49.77;98650.78;7281528;19;153153;-49
2021/12/28 11:17:36;;;;;;;;;;;;;;;17.83;49.90;98646.84;7280816;19;154259;-49
2021/12/28 11:20:03;;;;;;;;;;;;;;;17.82;49.89;98657.19;7282777;19;152392;-49
2021/12/28 11:22:30;;;;;;;;;;;;;;;17.84;49.71;98657.69;7283433;19;153229;-50
2021/12/28 11:24:58;;;;;;;;;;;;;;;17.82;50.12;98654.41;7281110;19;153352;-49
2021/12/28 11:27:27;;;;;;;;;;;;;;;17.80;50.31;98659.53;7285498;19;151823;-50
2021/12/28 11:29:59;;;;;;;;;;;;;;;17.83;50.08;98660.81;7280906;19;154332;-50
2021/12/28 11:32:28;;;;;;;;;;;;;;;17.81;50.30;98660.34;7282245;19;151877;-49
2021/12/28 11:34:55;;;;;;;;;;;;;;;17.82;50.04;98667.53;7278705;19;152013;-50
2021/12/28 11:37:25;;;;;;;;;;;;;;;17.81;49.86;98661.13;7280353;19;153261;-49
2021/12/28 11:39:55;;;;;;;;;;;;;;;17.84;50.16;98666.06;7281749;19;151962;-49
2021/12/28 11:42:22;;;;;;;;;;;;;;;17.84;49.99;98666.06;7282557;19;153105;-49
2021/12/28 11:44:51;;;;;;;;;;;;;;;17.85;50.29;98672.47;7278161;19;153556;-50
2021/12/28 11:47:19;;;;;;;;;;;;;;;17.84;49.98;98673.63;7279104;19;152247;-50
2021/12/28 11:49:47;;;;;;;;;;;;;;;17.83;50.48;98680.34;7290794;19;152805;-49
2021/12/28 11:52:15;;;;;;;;;;;;;;;17.81;50.47;98685.50;7288426;19;151911;-49
2021/12/28 11:54:44;;;;;;;;;;;;;;;17.81;50.26;98683.47;7287983;19;153047;-50
2021/12/28 11:57:13;;;;;;;;;;;;;;;17.82;50.18;98696.28;7285660;19;153788;-50
2021/12/28 11:59:41;;;;;;;;;;;;;;;17.82;50.24;98689.88;7286151;19;152055;-48
2021/12/28 12:02:09;;;;;;;;;;;;;;;17.84;50.08;98721.91;7286899;19;152782;-49
2021/12/28 12:04:39;;;;;;;;;;;;;;;17.89;50.44;98706.91;7285269;19;153228;-49
2021/12/28 12:07:12;;;;;;;;;;;;;;;17.90;50.37;98723.31;7285446;19;152320;-49
2021/12/28 12:09:46;;;;;;;;;;;;;;;17.90;50.05;98714.13;7286986;19;152880;-49
2021/12/28 12:12:16;;;;;;;;;;;;;;;17.90;49.85;98708.56;7293695;19;153967;-50
2021/12/28 12:14:52;;;;;;;;;;;;;;;17.91;50.00;98713.78;7287588;19;152319;-50
2021/12/28 12:17:22;;;;;;;;;;;;;;;17.89;49.94;98716.13;7286213;19;152899;-49
2021/12/28 12:19:50;;;;;;;;;;;;;;;17.87;49.80;98726.81;7285925;19;151803;-50
2021/12/28 12:22:20;;;;;;;;;;;;;;;17.90;49.41;98739.28;7286343;19;153448;-49
2021/12/28 12:24:50;;;;;;;;;;;;;;;17.93;49.61;98731.03;7285786;19;154469;-50
2021/12/28 12:27:21;;;;;;;;;;;;;;;17.94;49.56;98731.84;7286647;19;152427;-50
2021/12/28 12:29:48;;;;;;;;;;;;;;;17.94;49.33;98752.22;7286444;19;151826;-50
2021/12/28 12:32:35;;;;;;;;;;;;;;;17.96;49.57;98746.25;7286592;19;154038;-50
2021/12/28 12:35:05;;;;;;;;;;;;;;;17.98;49.61;98749.53;7291594;19;152431;-49
2021/12/28 12:37:38;;;;;;;;;;;;;;;17.99;49.52;98760.34;7285586;19;154387;-49
2021/12/28 12:40:05;;;;;;;;;;;;;;;17.99;49.50;98763.16;7285308;19;152380;-50
2021/12/28 12:42:33;;;;;;;;;;;;;;;17.98;49.36;98761.53;7288990;19;153728;-49
2021/12/28 12:45:00;;;;;;;;;;;;;;;18.01;49.75;98757.22;7283598;19;152488;-49